Terminal Aerodrome Forecast
Issued by NWS Bismarck, ND

Home | Current Version | Previous Version | Text Only | Print | Product List | Glossary Off
Versions: 1 2 3 4 5 6 7 8 9 10 11 12 13 14 15

000
FTUS43 KBIS 301721
TAFBIS
TAF
KBIS 301721Z 3018/0118 23011KT P6SM FEW120
     FM302000 31015G22KT P6SM VCSH BKN080
     FM010300 29005KT P6SM BKN200=

USA.gov is the U.S. government's official web portal to all federal, state and local government web resources and services.